Time;durP1;ratioP1;P1;durP2;ratioP2;P2;SDS_P1;SDS_P2;PMS_P1;PMS_P2;Temp;Humidity;BMP_temperature;BMP_pressure;BME280_temperature;BME280_humidity;BME280_pressure;Samples;Min_cycle;Max_cycle;Signal;HPM_P1;HPM_P2
2024/03/10 00:01:19;;;;;;;7.20;5.93;;;9.60;99.90;;;;;;5043509;28;20187;-83
2024/03/10 00:03:45;;;;;;;6.63;5.43;;;9.30;99.90;;;;;;5040124;28;20282;-83
2024/03/10 00:06:11;;;;;;;6.87;5.53;;;9.40;99.90;;;;;;5050642;28;20203;-83
2024/03/10 00:08:36;;;;;;;8.70;5.77;;;9.30;99.90;;;;;;5051270;28;20174;-83
2024/03/10 00:11:02;;;;;;;6.20;5.47;;;9.40;99.90;;;;;;5049853;28;20209;-83
2024/03/10 00:13:27;;;;;;;7.23;5.33;;;9.50;99.90;;;;;;5038806;28;20625;-83
2024/03/10 00:15:53;;;;;;;5.67;5.07;;;9.60;99.90;;;;;;5041034;28;20210;-83
2024/03/10 00:18:18;;;;;;;5.60;5.00;;;9.20;99.90;;;;;;5041818;28;20277;-83
2024/03/10 00:20:44;;;;;;;5.40;4.90;;;9.20;99.90;;;;;;5040509;28;20276;-83
2024/03/10 00:23:10;;;;;;;6.80;5.83;;;9.70;99.90;;;;;;5036285;28;20186;-83
2024/03/10 00:25:36;;;;;;;6.78;6.10;;;9.30;99.90;;;;;;5041229;28;20978;-83
2024/03/10 00:28:03;;;;;;;7.63;5.13;;;9.30;99.90;;;;;;5039007;28;20179;-83
2024/03/10 00:30:29;;;;;;;6.45;5.55;;;9.30;99.90;;;;;;5036350;28;20190;-83
2024/03/10 00:32:55;;;;;;;6.13;4.97;;;9.10;99.90;;;;;;5037261;28;20438;-83
2024/03/10 00:35:22;;;;;;;5.35;4.78;;;9.00;99.90;;;;;;5040328;28;20186;-84
2024/03/10 00:37:47;;;;;;;5.88;4.82;;;8.90;99.90;;;;;;5041134;28;20187;-84
2024/03/10 00:40:15;;;;;;;5.90;4.70;;;8.80;99.90;;;;;;5037358;28;20213;-84
2024/03/10 00:42:40;;;;;;;5.30;4.80;;;9.10;99.90;;;;;;5045911;28;20643;-83
2024/03/10 00:45:06;;;;;;;5.90;5.30;;;9.10;99.90;;;;;;5043181;28;20178;-83
2024/03/10 00:47:32;;;;;;;5.60;5.00;;;9.10;99.90;;;;;;5039716;28;20186;-83
2024/03/10 00:49:58;;;;;;;7.10;5.27;;;9.40;99.90;;;;;;5039104;28;20182;-83
2024/03/10 00:52:23;;;;;;;6.10;5.50;;;9.50;99.90;;;;;;5041016;28;20630;-83
2024/03/10 00:54:49;;;;;;;8.43;4.73;;;9.60;99.90;;;;;;5039555;28;20195;-84
2024/03/10 00:57:15;;;;;;;6.57;5.37;;;9.20;99.90;;;;;;5042007;28;20214;-84
2024/03/10 00:59:42;;;;;;;7.03;4.80;;;9.70;99.90;;;;;;5039549;28;20203;-83
2024/03/10 01:02:07;;;;;;;5.65;4.97;;;9.10;99.90;;;;;;5037421;28;20444;-84
2024/03/10 01:04:33;;;;;;;5.00;4.50;;;9.30;99.90;;;;;;5039994;28;20179;-84
2024/03/10 01:06:58;;;;;;;4.87;4.37;;;9.30;99.90;;;;;;5023656;28;20202;-83
2024/03/10 01:09:24;;;;;;;5.70;5.10;;;;;;;;;;5041538;28;20254;-84
2024/03/10 01:11:51;;;;;;;6.40;4.63;;;9.10;99.90;;;;;;5043483;28;20274;-84
2024/03/10 01:14:17;;;;;;;5.05;4.47;;;9.40;99.90;;;;;;5042687;28;20213;-84
2024/03/10 01:16:42;;;;;;;5.40;4.20;;;9.30;99.90;;;;;;5043208;28;20198;-83
2024/03/10 01:19:11;;;;;;;4.50;4.10;;;9.30;99.90;;;;;;5047764;28;20484;-83
2024/03/10 01:21:37;;;;;;;14.07;5.35;;;9.60;99.90;;;;;;5051784;28;20186;-84
2024/03/10 01:24:04;;;;;;;4.75;4.20;;;9.10;99.90;;;;;;5050310;28;20182;-84
2024/03/10 01:26:30;;;;;;;4.75;3.65;;;9.20;99.90;;;;;;5042243;28;20270;-84
2024/03/10 01:28:55;;;;;;;4.72;4.28;;;9.10;99.90;;;;;;5041736;28;20918;-83
2024/03/10 01:31:22;;;;;;;4.13;3.40;;;9.20;99.90;;;;;;5046635;28;20178;-84
2024/03/10 01:33:48;;;;;;;5.00;4.30;;;9.60;99.90;;;;;;5043584;28;20187;-83
2024/03/10 01:36:14;;;;;;;5.63;4.63;;;9.20;99.90;;;;;;5043966;28;20210;-83
2024/03/10 01:38:40;;;;;;;5.30;4.20;;;9.70;99.90;;;;;;5046509;28;20215;-84
2024/03/10 01:41:06;;;;;;;6.00;4.53;;;9.60;99.90;;;;;;5041866;28;20654;-84
2024/03/10 01:43:31;;;;;;;4.07;3.67;;;9.40;99.90;;;;;;5040780;28;20203;-84
2024/03/10 01:46:06;;;;;;;5.10;4.43;;;9.50;99.90;;;;;;5041976;28;20273;-84
2024/03/10 01:48:33;;;;;;;6.45;4.05;;;9.60;99.90;;;;;;5044103;28;20190;-84
2024/03/10 01:50:59;;;;;;;5.00;4.50;;;9.60;99.90;;;;;;5046482;28;20251;-84
2024/03/10 01:53:24;;;;;;;5.23;4.73;;;10.10;99.90;;;;;;5041197;28;20226;-84
2024/03/10 01:55:51;;;;;;;6.17;4.10;;;9.70;99.90;;;;;;5041045;28;20218;-84
2024/03/10 01:58:17;;;;;;;6.53;4.40;;;9.50;99.90;;;;;;5038871;28;20849;-84
2024/03/10 02:00:44;;;;;;;5.18;4.68;;;10.00;99.80;;;;;;5041461;28;20205;-84
2024/03/10 02:03:11;;;;;;;5.30;4.80;;;9.60;99.90;;;;;;5041581;28;20196;-84
2024/03/10 02:05:37;;;;;;;5.80;4.72;;;9.60;99.90;;;;;;5040459;28;20206;-84
2024/03/10 02:08:03;;;;;;;5.20;4.23;;;9.20;99.90;;;;;;5043859;28;20224;-83
2024/03/10 02:10:28;;;;;;;3.70;3.40;;;10.10;99.90;;;;;;5044007;28;20447;-84
2024/03/10 02:12:55;;;;;;;4.10;3.70;;;9.80;99.90;;;;;;5040238;28;20424;-84
2024/03/10 02:15:22;;;;;;;5.75;4.13;;;9.50;99.90;;;;;;5039628;28;20294;-84
2024/03/10 02:17:48;;;;;;;5.03;4.40;;;9.40;99.90;;;;;;5042388;28;20183;-83
2024/03/10 02:20:19;;;;;;;4.70;4.25;;;9.50;99.90;;;;;;5039205;28;20200;-84
2024/03/10 02:22:45;;;;;;;5.60;4.35;;;9.60;99.90;;;;;;5038731;28;20187;-84
2024/03/10 02:25:12;;;;;;;5.13;4.63;;;9.90;99.90;;;;;;5043948;28;20175;-84
2024/03/10 02:27:44;;;;;;;4.70;4.18;;;9.50;99.90;;;;;;5043805;28;20199;-84
2024/03/10 02:30:22;;;;;;;5.50;4.53;;;9.80;99.90;;;;;;5043364;28;20202;-84
2024/03/10 02:49:14;;;;;;;5.05;4.55;;;9.10;99.90;;;;;;5047666;28;20286;-83
2024/03/10 02:51:43;;;;;;;6.03;5.43;;;9.30;99.90;;;;;;5050585;28;20181;-83
2024/03/10 02:54:09;;;;;;;6.25;5.20;;;9.40;99.90;;;;;;5038932;28;20445;-83
2024/03/10 02:56:35;;;;;;;5.22;4.40;;;9.10;99.90;;;;;;5039924;28;21162;-83
2024/03/10 02:59:00;;;;;;;6.40;4.80;;;9.50;99.90;;;;;;5041162;28;20211;-83
2024/03/10 03:01:26;;;;;;;5.83;4.60;;;9.20;99.90;;;;;;5040030;28;20253;-83
2024/03/10 03:03:51;;;;;;;7.43;5.30;;;9.40;99.90;;;;;;5040942;28;20175;-83
2024/03/10 03:06:17;;;;;;;5.53;5.03;;;9.50;99.90;;;;;;5040833;28;20260;-84
2024/03/10 03:08:43;;;;;;;6.03;4.45;;;8.90;99.90;;;;;;5041233;28;20265;-83
2024/03/10 03:11:09;;;;;;;5.60;5.00;;;9.20;99.90;;;;;;5036412;28;20655;-83
2024/03/10 03:13:36;;;;;;;6.82;5.15;;;8.90;99.90;;;;;;5037443;28;20559;-84
2024/03/10 03:16:02;;;;;;;6.60;4.75;;;8.80;99.90;;;;;;5040242;28;20199;-83
2024/03/10 03:18:29;;;;;;;5.90;5.22;;;8.80;99.90;;;;;;5040816;28;20210;-84
2024/03/10 03:20:55;;;;;;;7.18;5.50;;;9.10;99.90;;;;;;5041364;28;20194;-84
2024/03/10 03:23:21;;;;;;;5.90;4.75;;;9.00;99.90;;;;;;5038178;28;20197;-84
2024/03/10 03:25:49;;;;;;;5.68;4.93;;;8.80;99.90;;;;;;5036475;28;20213;-84
2024/03/10 03:28:17;;;;;;;5.10;4.50;;;8.70;99.90;;;;;;5037518;28;20241;-84
2024/03/10 03:30:43;;;;;;;5.15;4.65;;;8.40;99.90;;;;;;5040752;28;20186;-84
2024/03/10 03:33:09;;;;;;;4.90;4.23;;;8.50;99.90;;;;;;5024435;28;20213;-83
2024/03/10 03:35:37;;;;;;;5.23;4.73;;;8.20;99.90;;;;;;5040833;28;20194;-83
2024/03/10 03:38:03;;;;;;;6.68;4.70;;;8.30;99.90;;;;;;5041019;28;20284;-83
2024/03/10 03:40:29;;;;;;;4.93;4.23;;;8.20;99.90;;;;;;5036253;28;20206;-84
2024/03/10 03:42:55;;;;;;;5.88;5.07;;;8.80;99.90;;;;;;5036747;28;20433;-83
2024/03/10 03:45:22;;;;;;;6.07;4.70;;;8.30;99.90;;;;;;5040354;28;20189;-84
2024/03/10 03:47:47;;;;;;;4.45;4.05;;;8.60;99.90;;;;;;5040049;28;20209;-84
2024/03/10 03:50:15;;;;;;;4.73;4.33;;;8.80;99.90;;;;;;5042246;28;20613;-83
2024/03/10 03:52:41;;;;;;;4.72;4.28;;;8.60;99.90;;;;;;5041672;28;20219;-83
2024/03/10 03:55:07;;;;;;;5.17;4.63;;;8.50;99.90;;;;;;5044921;28;20322;-84
2024/03/10 03:57:33;;;;;;;5.60;4.28;;;8.50;99.90;;;;;;5045906;28;20452;-83
2024/03/10 03:59:59;;;;;;;5.47;4.57;;;8.50;99.90;;;;;;5040448;28;20195;-84
2024/03/10 04:02:25;;;;;;;4.27;3.73;;;8.90;99.90;;;;;;5055065;28;20308;-84
2024/03/10 04:04:52;;;;;;;4.93;4.43;;;8.90;99.90;;;;;;5040972;28;20471;-83
2024/03/10 04:07:18;;;;;;;5.07;4.50;;;8.40;99.90;;;;;;5034707;28;20585;-83
2024/03/10 04:09:43;;;;;;;6.17;4.70;;;8.50;99.90;;;;;;5042431;28;20186;-84
2024/03/10 04:12:09;;;;;;;7.50;4.53;;;8.70;99.90;;;;;;5040352;28;20198;-83
2024/03/10 04:14:34;;;;;;;5.57;4.97;;;8.60;99.90;;;;;;5037639;28;20189;-84
2024/03/10 04:17:00;;;;;;;5.65;4.25;;;8.20;99.90;;;;;;5040226;28;20205;-84
2024/03/10 04:19:26;;;;;;;6.10;4.77;;;8.10;99.90;;;;;;5039351;28;20199;-83
2024/03/10 04:21:51;;;;;;;8.20;4.77;;;8.40;99.90;;;;;;5039805;28;20599;-84
2024/03/10 04:24:18;;;;;;;6.17;4.90;;;8.00;99.90;;;;;;5039464;28;20299;-84
2024/03/10 04:26:44;;;;;;;6.25;4.70;;;8.10;99.90;;;;;;5039553;28;20726;-83
2024/03/10 04:29:10;;;;;;;4.60;4.20;;;8.20;99.90;;;;;;5035406;28;20194;-84
2024/03/10 04:31:35;;;;;;;5.03;4.53;;;8.10;99.90;;;;;;5039975;28;20494;-84
2024/03/10 04:34:01;;;;;;;4.87;4.30;;;7.90;99.90;;;;;;5038714;28;20190;-84
2024/03/10 04:36:29;;;;;;;4.97;4.47;;;7.80;99.90;;;;;;5040195;28;20229;-84
2024/03/10 04:38:55;;;;;;;5.47;4.68;;;8.30;99.90;;;;;;5038553;28;20214;-84
2024/03/10 04:41:21;;;;;;;4.85;4.40;;;8.10;99.90;;;;;;5037423;28;20224;-84
2024/03/10 04:43:47;;;;;;;4.67;4.20;;;7.90;99.90;;;;;;5034500;28;20186;-84
2024/03/10 04:46:12;;;;;;;5.83;4.20;;;8.30;99.90;;;;;;5036219;28;20456;-84
2024/03/10 04:48:38;;;;;;;6.20;4.20;;;7.80;99.90;;;;;;5036990;28;20449;-82
2024/03/10 04:51:04;;;;;;;6.20;4.27;;;8.00;99.90;;;;;;5037003;28;20198;-84
2024/03/10 04:53:29;;;;;;;4.50;4.10;;;7.70;99.90;;;;;;5038499;28;20262;-84
2024/03/10 04:55:55;;;;;;;4.63;4.13;;;8.20;99.90;;;;;;5038333;28;20675;-84
2024/03/10 04:58:22;;;;;;;5.63;4.00;;;8.20;99.90;;;;;;5038677;28;20261;-84
2024/03/10 05:00:47;;;;;;;4.57;4.10;;;7.90;99.90;;;;;;5042702;28;20205;-83
2024/03/10 05:03:13;;;;;;;4.73;4.23;;;7.90;99.90;;;;;;5051401;28;20175;-84
2024/03/10 05:05:39;;;;;;;4.70;4.20;;;7.50;99.90;;;;;;5044325;28;20501;-84
2024/03/10 05:08:05;;;;;;;4.82;4.43;;;7.50;99.90;;;;;;5037046;28;20445;-84
2024/03/10 05:10:31;;;;;;;5.20;4.53;;;7.60;99.90;;;;;;5040517;28;20193;-84
2024/03/10 05:12:56;;;;;;;6.50;4.60;;;7.90;99.90;;;;;;5044402;28;20444;-84
2024/03/10 05:15:22;;;;;;;4.30;3.90;;;7.50;99.90;;;;;;5046393;28;20197;-84
2024/03/10 05:17:47;;;;;;;4.37;3.87;;;7.40;99.90;;;;;;5045629;28;20186;-83
2024/03/10 05:20:15;;;;;;;5.30;4.20;;;7.70;99.90;;;;;;5044313;28;20221;-84
2024/03/10 05:22:40;;;;;;;4.80;4.40;;;7.40;99.90;;;;;;5045861;28;20194;-84
2024/03/10 05:25:09;;;;;;;5.20;4.07;;;7.40;99.90;;;;;;5045761;28;20547;-84
2024/03/10 05:27:37;;;;;;;5.03;4.50;;;7.50;99.90;;;;;;5045363;28;20198;-84
2024/03/10 05:30:03;;;;;;;5.45;4.55;;;7.70;99.90;;;;;;5044205;28;20187;-84
2024/03/10 05:32:29;;;;;;;4.63;4.20;;;7.40;99.90;;;;;;5039447;28;20195;-86
2024/03/10 05:34:56;;;;;;;6.67;4.60;;;7.50;99.90;;;;;;5037921;28;20661;-85
2024/03/10 05:37:22;;;;;;;6.68;4.32;;;7.80;99.90;;;;;;5047445;28;20190;-84
2024/03/10 05:39:48;;;;;;;5.83;4.33;;;7.30;99.90;;;;;;5054041;28;20216;-86
2024/03/10 05:42:14;;;;;;;4.60;4.20;;;7.80;99.90;;;;;;5048740;28;20444;-85
2024/03/10 05:44:40;;;;;;;5.10;4.32;;;7.50;99.90;;;;;;5041955;28;20202;-86
2024/03/10 05:47:06;;;;;;;4.45;4.05;;;7.80;99.90;;;;;;5043109;28;20238;-86
2024/03/10 05:49:32;;;;;;;4.87;4.03;;;7.50;99.90;;;;;;5036902;28;20187;-84
2024/03/10 05:51:58;;;;;;;5.23;4.40;;;7.60;99.90;;;;;;5033476;28;20456;-86
2024/03/10 05:54:24;;;;;;;5.00;4.50;;;7.20;99.90;;;;;;5042562;28;20607;-85
2024/03/10 05:56:50;;;;;;;5.18;4.38;;;7.40;99.90;;;;;;5043480;28;20912;-85
2024/03/10 05:59:16;;;;;;;5.23;4.73;;;7.40;99.90;;;;;;5042034;28;20241;-83
2024/03/10 06:01:41;;;;;;;5.13;4.63;;;7.70;99.90;;;;;;5059907;28;20186;-86
2024/03/10 06:04:07;;;;;;;4.50;4.10;;;8.00;99.90;;;;;;5044148;28;20468;-86
2024/03/10 06:06:33;;;;;;;4.90;4.20;;;7.50;99.90;;;;;;5042225;28;20502;-87
2024/03/10 06:09:00;;;;;;;5.28;4.47;;;7.50;99.90;;;;;;5042749;28;20221;-87
2024/03/10 06:11:26;;;;;;;6.05;4.10;;;7.20;99.90;;;;;;5027210;28;20287;-85
2024/03/10 06:13:51;;;;;;;5.05;4.65;;;7.30;99.90;;;;;;5050940;28;20171;-85
2024/03/10 06:16:17;;;;;;;5.27;4.60;;;7.10;99.90;;;;;;5056553;28;20203;-86
2024/03/10 06:25:22;;;;;;;4.63;4.23;;;7.30;99.90;;;;;;5050773;28;20247;-84
2024/03/10 06:27:00;;;;;;;6.88;3.80;;;7.40;99.90;;;;;;5044033;28;20219;-84
2024/03/10 06:29:26;;;;;;;4.38;3.80;;;7.20;99.90;;;;;;5038717;28;20182;-83
2024/03/10 06:31:53;;;;;;;5.30;4.60;;;7.20;99.90;;;;;;5044946;28;20212;-82
2024/03/10 06:34:18;;;;;;;4.43;4.03;;;7.70;99.90;;;;;;5039056;28;20201;-86
2024/03/10 06:36:44;;;;;;;4.43;4.10;;;7.30;99.90;;;;;;5033453;28;20210;-86
2024/03/10 06:39:10;;;;;;;4.90;4.30;;;7.50;99.90;;;;;;5037108;28;20218;-83
2024/03/10 06:41:36;;;;;;;4.27;3.87;;;7.80;99.90;;;;;;5044313;28;20433;-85
2024/03/10 06:44:04;;;;;;;5.20;4.53;;;7.50;99.90;;;;;;5034049;28;20174;-84
2024/03/10 06:46:29;;;;;;;5.28;4.78;;;7.30;99.90;;;;;;5043369;28;20453;-83
2024/03/10 06:48:55;;;;;;;5.70;4.40;;;7.80;99.90;;;;;;5044703;28;20189;-84
2024/03/10 06:51:22;;;;;;;5.13;4.30;;;7.70;99.90;;;;;;5037710;28;20469;-84
2024/03/10 06:53:48;;;;;;;5.30;4.40;;;7.50;99.90;;;;;;5036108;28;20619;-86
2024/03/10 06:56:14;;;;;;;5.75;5.15;;;7.70;99.90;;;;;;5038411;28;20201;-87
2024/03/10 06:58:48;;;;;;;4.80;4.40;;;8.00;99.90;;;;;;5036472;28;20182;-86
2024/03/10 07:01:15;;;;;;;4.95;4.25;;;7.70;99.90;;;;;;5039491;28;20202;-86
2024/03/10 07:03:41;;;;;;;5.68;4.57;;;7.80;99.90;;;;;;5040917;28;20245;-85
2024/03/10 07:06:06;;;;;;;6.40;4.50;;;7.30;99.90;;;;;;5021502;28;20233;-87
2024/03/10 07:08:32;;;;;;;4.23;3.77;;;7.60;99.90;;;;;;5038815;28;20182;-87
2024/03/10 07:10:58;;;;;;;4.80;4.30;;;7.80;99.90;;;;;;5036811;28;20686;-83
2024/03/10 07:13:24;;;;;;;5.40;4.40;;;7.80;99.90;;;;;;5035017;28;20174;-86
2024/03/10 07:15:49;;;;;;;5.33;4.80;;;7.50;99.90;;;;;;5036811;28;20220;-85
2024/03/10 07:18:15;;;;;;;5.57;4.63;;;7.70;99.90;;;;;;5051504;28;20191;-86
2024/03/10 07:20:41;;;;;;;4.68;4.20;;;7.70;99.90;;;;;;5041028;28;20206;-86
2024/03/10 07:23:07;;;;;;;5.93;4.53;;;7.90;99.90;;;;;;5039403;28;20201;-86
2024/03/10 07:25:32;;;;;;;5.27;4.77;;;8.00;99.90;;;;;;5038660;28;20201;-86
2024/03/10 07:27:58;;;;;;;6.10;4.20;;;8.30;99.90;;;;;;5037927;28;20178;-86
2024/03/10 07:30:23;;;;;;;5.23;4.43;;;8.10;99.90;;;;;;5038391;28;20205;-86
2024/03/10 07:32:49;;;;;;;5.13;4.20;;;8.10;99.90;;;;;;5038076;28;20213;-86
2024/03/10 07:35:16;;;;;;;4.10;3.47;;;8.10;99.90;;;;;;5041601;28;20411;-86
2024/03/10 07:37:42;;;;;;;4.40;4.00;;;7.90;99.90;;;;;;5040738;28;20190;-84
2024/03/10 07:40:16;;;;;;;4.35;3.83;;;8.00;99.90;;;;;;5036666;28;20210;-86
2024/03/10 07:42:43;;;;;;;4.53;4.10;;;8.00;99.90;;;;;;5043954;28;20173;-86
2024/03/10 07:45:10;;;;;;;4.93;4.28;;;8.60;99.90;;;;;;5048012;28;20258;-86
2024/03/10 07:47:41;;;;;;;4.47;4.07;;;8.30;99.90;;;;;;5061035;28;20173;-85
2024/03/10 07:50:08;;;;;;;4.38;3.97;;;8.60;99.90;;;;;;5050229;28;20179;-86
2024/03/10 07:52:35;;;;;;;5.57;4.55;;;8.90;99.90;;;;;;5044523;28;20186;-86
2024/03/10 07:55:02;;;;;;;5.40;4.40;;;9.20;99.90;;;;;;5055058;28;20181;-85
2024/03/10 07:57:27;;;;;;;4.97;4.25;;;9.40;99.90;;;;;;5056073;28;20754;-84
2024/03/10 07:59:53;;;;;;;5.50;4.67;;;9.30;99.90;;;;;;5051990;28;20207;-85
2024/03/10 08:02:18;;;;;;;5.30;4.80;;;9.40;99.90;;;;;;5050096;28;20208;-84
2024/03/10 08:04:44;;;;;;;5.70;4.83;;;9.80;99.90;;;;;;5054357;28;20193;-84
2024/03/10 08:07:10;;;;;;;6.47;5.53;;;10.30;99.90;;;;;;5055494;28;20233;-84
2024/03/10 08:09:35;;;;;;;8.07;5.03;;;10.70;99.90;;;;;;5054111;28;20207;-84
2024/03/10 08:12:03;;;;;;;4.83;4.33;;;11.30;99.20;;;;;;5054781;28;20182;-84
2024/03/10 08:14:29;;;;;;;5.90;4.35;;;11.30;98.00;;;;;;5056664;28;20265;-85
2024/03/10 08:16:55;;;;;;;5.23;4.67;;;11.50;97.50;;;;;;5057210;28;20196;-85
2024/03/10 08:19:21;;;;;;;5.30;4.80;;;11.70;97.30;;;;;;5056617;28;20269;-84
2024/03/10 08:21:46;;;;;;;6.05;5.45;;;11.10;96.80;;;;;;5055865;28;20328;-85
2024/03/10 08:24:13;;;;;;;5.30;4.80;;;11.30;97.40;;;;;;5057124;28;20260;-85
2024/03/10 08:26:39;;;;;;;5.10;4.25;;;11.20;96.80;;;;;;5054955;28;20188;-86
2024/03/10 08:29:04;;;;;;;5.10;4.60;;;11.10;96.80;;;;;;5058660;28;20179;-85
2024/03/10 08:31:30;;;;;;;4.53;4.13;;;11.10;96.00;;;;;;5056931;28;20510;-84
2024/03/10 08:33:56;;;;;;;4.87;4.37;;;11.90;95.60;;;;;;5054544;28;20174;-85
2024/03/10 08:36:22;;;;;;;5.13;4.07;;;11.80;94.40;;;;;;5049696;28;20465;-84
2024/03/10 08:38:47;;;;;;;4.23;3.90;;;12.00;92.40;;;;;;5043762;28;20210;-84
2024/03/10 08:41:14;;;;;;;5.07;4.40;;;12.40;92.90;;;;;;5038874;28;21008;-85
2024/03/10 08:43:39;;;;;;;4.15;3.47;;;11.80;92.40;;;;;;5040760;28;20196;-85
2024/03/10 08:46:05;;;;;;;4.60;4.20;;;12.20;92.30;;;;;;5039779;28;20209;-84
2024/03/10 08:48:30;;;;;;;4.40;4.10;;;12.50;91.90;;;;;;5038737;28;20189;-85
2024/03/10 08:50:56;;;;;;;4.30;3.90;;;12.90;91.70;;;;;;5040439;28;20205;-85
2024/03/10 08:53:21;;;;;;;3.80;3.47;;;12.60;91.10;;;;;;5051718;28;20787;-84
2024/03/10 08:55:47;;;;;;;3.47;3.17;;;13.20;90.80;;;;;;5052287;28;20205;-85
2024/03/10 08:58:13;;;;;;;3.20;2.90;;;12.80;89.50;;;;;;5043700;28;20702;-84
2024/03/10 09:00:39;;;;;;;3.50;3.20;;;12.40;89.40;;;;;;5031876;28;20257;-84
2024/03/10 09:03:05;;;;;;;3.77;3.37;;;12.90;89.30;;;;;;5035155;28;20181;-84
2024/03/10 09:05:31;;;;;;;3.40;3.13;;;13.20;89.70;;;;;;5045328;28;20322;-85
2024/03/10 09:07:57;;;;;;;3.13;2.90;;;13.20;88.50;;;;;;5038672;28;20190;-85
2024/03/10 09:10:25;;;;;;;4.93;4.53;;;12.90;87.30;;;;;;5041016;28;20188;-85
2024/03/10 09:12:53;;;;;;;3.45;3.13;;;12.90;87.70;;;;;;5037965;28;20190;-85
2024/03/10 09:15:21;;;;;;;3.00;2.70;;;13.00;87.00;;;;;;5037209;28;20206;-85
2024/03/10 09:17:47;;;;;;;2.85;2.60;;;13.50;86.40;;;;;;5039246;28;20249;-85
2024/03/10 09:20:13;;;;;;;3.10;2.90;;;13.30;85.20;;;;;;5039753;28;20213;-86
2024/03/10 09:22:43;;;;;;;3.30;2.67;;;14.40;85.30;;;;;;5040899;28;20619;-86
2024/03/10 09:25:20;;;;;;;3.65;2.97;;;14.60;82.20;;;;;;5042030;28;20193;-86
2024/03/10 09:27:46;;;;;;;2.90;2.60;;;14.80;80.20;;;;;;5041472;28;20217;-84
2024/03/10 09:30:13;;;;;;;3.33;2.83;;;15.40;78.70;;;;;;5037254;28;20190;-84
2024/03/10 09:32:42;;;;;;;4.15;3.10;;;15.00;77.20;;;;;;5042830;28;20405;-85
2024/03/10 09:35:09;;;;;;;2.65;2.45;;;15.60;77.10;;;;;;5041982;28;20178;-85
2024/03/10 09:37:36;;;;;;;3.25;2.95;;;15.70;76.70;;;;;;5024063;28;20201;-85
2024/03/10 09:40:05;;;;;;;3.72;2.78;;;15.60;76.20;;;;;;5041303;28;20213;-86
2024/03/10 09:42:32;;;;;;;3.08;2.50;;;15.10;76.70;;;;;;5042409;28;20183;-85
2024/03/10 09:44:59;;;;;;;3.50;2.85;;;15.70;77.40;;;;;;5019648;28;20186;-85
2024/03/10 09:47:26;;;;;;;4.70;4.30;;;15.60;75.40;;;;;;5041233;28;20198;-85
2024/03/10 09:49:52;;;;;;;2.85;2.60;;;15.30;75.50;;;;;;5042727;28;20264;-85
2024/03/10 09:52:18;;;;;;;6.15;2.63;;;15.30;75.90;;;;;;5026417;28;20198;-85
2024/03/10 09:54:44;;;;;;;2.63;2.42;;;15.00;75.90;;;;;;5058555;28;20228;-85
2024/03/10 09:57:10;;;;;;;3.43;2.50;;;15.40;76.50;;;;;;5053908;28;20214;-85
2024/03/10 09:59:44;;;;;;;2.90;2.70;;;14.90;75.50;;;;;;5048324;28;20210;-84
2024/03/10 10:02:21;;;;;;;2.80;2.60;;;15.00;74.10;;;;;;5045651;28;20205;-87
2024/03/10 10:04:57;;;;;;;2.40;2.20;;;14.60;75.00;;;;;;5055382;28;20197;-85
2024/03/10 10:07:26;;;;;;;2.72;2.10;;;14.80;76.50;;;;;;5041669;28;20348;-87
2024/03/10 10:09:57;;;;;;;2.78;2.20;;;14.40;75.90;;;;;;5040892;28;20190;-87
2024/03/10 10:12:22;;;;;;;3.97;2.50;;;14.30;76.40;;;;;;5042621;28;20188;-84
2024/03/10 10:14:48;;;;;;;3.20;2.70;;;14.80;77.50;;;;;;5043724;28;20202;-86
2024/03/10 10:17:17;;;;;;;2.37;2.17;;;14.40;78.00;;;;;;5044204;28;20217;-86
2024/03/10 10:19:43;;;;;;;2.92;2.65;;;14.50;79.20;;;;;;5043181;28;20210;-85
2024/03/10 10:22:08;;;;;;;2.17;1.97;;;14.30;78.90;;;;;;5042803;28;20269;-83
2024/03/10 10:24:34;;;;;;;3.53;2.83;;;13.80;78.20;;;;;;5043916;28;20174;-84
2024/03/10 10:27:03;;;;;;;3.10;2.60;;;14.10;79.20;;;;;;5044698;28;20205;-84
2024/03/10 10:29:29;;;;;;;2.58;2.38;;;14.20;79.30;;;;;;5048320;28;20193;-85
2024/03/10 10:31:56;;;;;;;2.83;2.63;;;14.90;79.70;;;;;;5056623;28;20193;-83
2024/03/10 10:34:22;;;;;;;2.35;2.15;;;14.70;77.60;;;;;;5054037;28;20264;-83
2024/03/10 10:36:48;;;;;;;2.80;2.60;;;14.90;77.70;;;;;;5049774;28;20210;-84
2024/03/10 10:39:17;;;;;;;3.20;2.90;;;14.90;78.30;;;;;;5054326;28;20547;-83
2024/03/10 10:41:44;;;;;;;3.03;2.65;;;14.50;77.20;;;;;;5050518;28;20204;-84
2024/03/10 10:44:11;;;;;;;3.20;2.60;;;14.40;78.70;;;;;;5042134;28;20437;-83
2024/03/10 10:46:38;;;;;;;2.65;2.45;;;14.80;79.20;;;;;;5044601;28;20198;-83
2024/03/10 10:49:04;;;;;;;3.58;2.70;;;14.70;78.80;;;;;;5041980;28;20178;-83
2024/03/10 10:51:33;;;;;;;2.97;2.60;;;14.70;77.90;;;;;;5045568;28;20257;-83
2024/03/10 10:54:07;;;;;;;2.92;2.63;;;14.80;77.90;;;;;;5046432;28;20186;-84
2024/03/10 10:56:33;;;;;;;2.40;2.20;;;14.50;77.30;;;;;;5060466;28;20210;-84
2024/03/10 10:59:00;;;;;;;2.33;2.13;;;15.40;77.50;;;;;;5053333;28;20245;-83
2024/03/10 11:01:25;;;;;;;2.50;2.30;;;15.10;77.10;;;;;;5020812;28;20459;-84
2024/03/10 11:03:54;;;;;;;2.40;2.20;;;14.90;78.00;;;;;;5042993;28;20210;-83
2024/03/10 11:06:19;;;;;;;3.03;2.83;;;15.10;78.40;;;;;;5048446;28;20206;-83
2024/03/10 11:08:49;;;;;;;2.60;2.40;;;15.50;77.80;;;;;;5058323;28;20213;-84
2024/03/10 11:11:45;;;;;;;2.75;2.22;;;15.20;77.40;;;;;;5053813;28;20445;-83
2024/03/10 11:14:16;;;;;;;4.80;2.80;;;15.50;77.10;;;;;;5045810;28;20297;-82
2024/03/10 11:16:43;;;;;;;3.03;2.55;;;15.20;77.00;;;;;;5045268;28;20197;-84
2024/03/10 11:19:17;;;;;;;3.00;2.80;;;14.50;78.40;;;;;;5026122;28;20232;-84
2024/03/10 11:21:47;;;;;;;3.60;2.75;;;15.20;78.50;;;;;;5048596;28;20182;-84
2024/03/10 11:24:25;;;;;;;3.47;2.60;;;14.90;78.00;;;;;;5049641;28;20250;-84
2024/03/10 11:27:36;;;;;;;2.25;2.08;;;15.50;78.30;;;;;;5053093;28;20240;-84
2024/03/10 11:30:47;;;;;;;2.60;2.40;;;15.00;78.20;;;;;;5029231;28;20205;-84
2024/03/10 11:33:13;;;;;;;2.35;2.15;;;14.90;78.90;;;;;;5041706;28;20272;-84
2024/03/10 11:35:40;;;;;;;3.50;3.20;;;15.20;80.50;;;;;;5043908;28;20237;-83
2024/03/10 11:38:09;;;;;;;2.50;2.30;;;15.10;80.60;;;;;;5040745;28;20459;-83
2024/03/10 11:40:37;;;;;;;3.13;2.75;;;15.30;78.80;;;;;;5047422;28;20230;-83
2024/03/10 11:43:03;;;;;;;3.80;3.50;;;15.30;79.30;;;;;;5041821;28;20280;-84
2024/03/10 11:45:29;;;;;;;2.67;2.47;;;14.90;79.00;;;;;;5036657;28;20237;-84
2024/03/10 11:47:55;;;;;;;3.70;2.90;;;15.00;78.80;;;;;;5042624;28;20475;-84
2024/03/10 11:50:21;;;;;;;4.80;2.30;;;15.10;79.40;;;;;;5036467;28;20503;-84
2024/03/10 11:52:48;;;;;;;2.77;2.50;;;14.80;80.10;;;;;;5036516;28;20205;-84
2024/03/10 11:55:18;;;;;;;3.10;2.70;;;14.60;80.30;;;;;;5039546;28;20502;-84
2024/03/10 11:57:44;;;;;;;3.20;2.70;;;14.50;79.50;;;;;;5034305;28;20178;-84
2024/03/10 12:00:15;;;;;;;3.42;3.13;;;14.50;79.40;;;;;;5034916;28;20210;-84
2024/03/10 12:02:41;;;;;;;2.40;2.20;;;14.50;80.10;;;;;;5039202;28;20189;-84
2024/03/10 12:05:09;;;;;;;3.53;2.67;;;14.90;80.80;;;;;;5037856;28;20204;-85
2024/03/10 12:07:35;;;;;;;6.10;2.70;;;15.00;79.90;;;;;;5036405;28;20194;-86
2024/03/10 12:10:08;;;;;;;3.85;2.70;;;15.30;79.70;;;;;;5035672;28;20189;-85
2024/03/10 12:12:35;;;;;;;2.60;2.40;;;15.30;78.80;;;;;;5036353;28;20300;-85
2024/03/10 12:15:01;;;;;;;2.75;2.33;;;15.50;77.90;;;;;;5051376;28;20205;-85
2024/03/10 12:17:28;;;;;;;3.03;2.63;;;15.50;77.80;;;;;;5043996;28;20261;-86
2024/03/10 12:19:54;;;;;;;4.00;2.83;;;16.00;78.00;;;;;;5039209;28;20330;-85
2024/03/10 12:22:19;;;;;;;3.20;2.90;;;15.90;77.60;;;;;;5053719;28;20236;-85
2024/03/10 12:24:46;;;;;;;2.87;2.50;;;15.80;77.30;;;;;;5034314;28;20258;-85
2024/03/10 12:27:13;;;;;;;2.97;2.70;;;16.10;76.20;;;;;;5034954;28;20202;-85
2024/03/10 12:29:45;;;;;;;2.65;2.45;;;15.80;76.50;;;;;;5034891;28;20547;-84
2024/03/10 12:32:12;;;;;;;2.85;2.55;;;15.60;77.20;;;;;;5031627;28;20190;-84
2024/03/10 12:34:38;;;;;;;3.45;2.50;;;15.50;76.90;;;;;;5035550;28;20194;-84
2024/03/10 12:37:04;;;;;;;2.50;2.30;;;16.10;78.80;;;;;;5038481;28;20314;-84
2024/03/10 12:39:30;;;;;;;4.47;2.10;;;15.60;78.70;;;;;;5038246;28;20221;-84
2024/03/10 12:41:55;;;;;;;4.50;2.63;;;15.40;78.20;;;;;;5035693;28;20440;-83
2024/03/10 12:44:21;;;;;;;2.53;2.33;;;16.00;79.20;;;;;;5035872;28;20447;-85
2024/03/10 12:46:46;;;;;;;2.47;2.27;;;15.50;78.40;;;;;;5037059;28;20221;-85
2024/03/10 12:49:12;;;;;;;2.57;2.37;;;15.20;77.30;;;;;;5035315;28;20229;-84
2024/03/10 12:51:38;;;;;;;2.27;2.07;;;16.00;77.20;;;;;;5035985;28;20241;-84
2024/03/10 12:54:05;;;;;;;3.10;2.13;;;16.20;78.10;;;;;;5039523;28;20277;-85
2024/03/10 12:56:30;;;;;;;3.35;2.47;;;16.30;78.30;;;;;;5038060;28;20210;-83
2024/03/10 12:58:56;;;;;;;2.47;2.27;;;15.80;76.70;;;;;;5038983;28;20220;-85
2024/03/10 13:01:23;;;;;;;2.67;2.47;;;16.00;76.50;;;;;;5036984;28;20182;-84
2024/03/10 13:03:49;;;;;;;2.33;2.13;;;16.10;75.40;;;;;;5036990;28;20182;-82
2024/03/10 13:06:16;;;;;;;3.10;2.77;;;15.80;76.00;;;;;;5038840;28;20201;-82
2024/03/10 13:08:43;;;;;;;2.97;2.40;;;16.00;76.50;;;;;;5038288;28;20199;-82
2024/03/10 13:11:09;;;;;;;3.58;2.88;;;16.10;76.20;;;;;;5037904;28;20236;-84
2024/03/10 13:13:34;;;;;;;2.60;2.40;;;16.10;75.90;;;;;;5039360;28;20588;-83